createdAt,value
2019-01-17T00:00:47.164Z,5.01
2019-01-17T00:06:27.125Z,5.06
2019-01-17T00:11:51.887Z,5.16
2019-01-17T00:17:13.958Z,5.12
2019-01-17T00:22:37.210Z,5.15
2019-01-17T00:27:48.686Z,5.14
2019-01-17T00:33:04.406Z,4.94
2019-01-17T00:38:22.357Z,4.99
2019-01-17T00:43:53.258Z,4.95
2019-01-17T00:49:18.628Z,4.92
2019-01-17T00:54:44.232Z,4.79
2019-01-17T01:00:01.578Z,4.86
2019-01-17T01:05:32.366Z,4.94
2019-01-17T01:10:53.196Z,4.99
2019-01-17T01:16:16.981Z,4.84
2019-01-17T01:21:37.187Z,4.78
2019-01-17T01:27:01.906Z,4.85
2019-01-17T01:32:11.556Z,5.03
2019-01-17T01:37:32.198Z,4.92
2019-01-17T01:42:53.224Z,4.80
2019-01-17T01:48:09.126Z,4.67
2019-01-17T01:53:11.607Z,4.91
2019-01-17T01:58:14.419Z,4.76
2019-01-17T02:03:18.663Z,4.72
2019-01-17T02:08:22.248Z,4.77
2019-01-17T02:13:25.116Z,4.69
2019-01-17T02:18:27.990Z,4.83
2019-01-17T02:23:30.772Z,4.91
2019-01-17T02:28:33.260Z,4.74
2019-01-17T02:33:35.760Z,4.84
2019-01-17T02:38:38.464Z,4.91
2019-01-17T02:43:40.842Z,4.80
2019-01-17T02:48:43.467Z,4.99
2019-01-17T02:53:46.508Z,4.97
2019-01-17T02:58:49.250Z,5.00
2019-01-17T03:03:51.468Z,4.90
2019-01-17T03:08:54.028Z,5.06
2019-01-17T03:13:56.831Z,5.00
2019-01-17T03:18:59.837Z,4.92
2019-01-17T03:24:02.336Z,4.93
2019-01-17T03:29:05.057Z,4.99
2019-01-17T03:34:07.626Z,4.88
2019-01-17T03:39:10.627Z,4.95
2019-01-17T03:44:13.007Z,4.83
2019-01-17T03:49:15.617Z,4.78
2019-01-17T03:54:17.999Z,4.80
2019-01-17T03:59:21.121Z,4.81
2019-01-17T04:04:23.813Z,4.67
2019-01-17T04:09:27.117Z,4.70
2019-01-17T04:14:29.790Z,4.74
2019-01-17T04:19:32.621Z,4.58
2019-01-17T04:24:35.006Z,4.50
2019-01-17T04:29:37.497Z,4.42
2019-01-17T04:34:39.597Z,4.50
2019-01-17T04:39:42.244Z,4.23
2019-01-17T04:44:44.684Z,4.31
2019-01-17T04:49:47.778Z,4.48
2019-01-17T04:54:50.456Z,4.43
2019-01-17T04:59:53.121Z,4.57
2019-01-17T05:04:55.559Z,4.54
2019-01-17T05:09:58.224Z,4.68
2019-01-17T05:15:01.201Z,4.62
2019-01-17T05:20:05.610Z,4.41
2019-01-17T05:25:12.802Z,4.47
2019-01-17T05:30:15.875Z,4.33
2019-01-17T05:35:18.651Z,4.25
2019-01-17T05:40:22.032Z,4.32
2019-01-17T05:45:24.617Z,4.25
2019-01-17T05:50:27.288Z,4.38
2019-01-17T05:55:29.511Z,4.43
2019-01-17T06:00:32.129Z,4.40
2019-01-17T06:05:34.901Z,4.60
2019-01-17T06:10:36.986Z,4.64
2019-01-17T06:15:40.805Z,4.82
2019-01-17T06:20:43.218Z,4.86
2019-01-17T06:25:45.278Z,4.92
2019-01-17T06:30:47.982Z,4.91
2019-01-17T06:35:50.673Z,4.91
2019-01-17T06:40:53.708Z,4.92
2019-01-17T06:45:56.564Z,4.88
2019-01-17T06:50:59.081Z,4.90
2019-01-17T06:56:02.134Z,4.78
2019-01-17T07:01:05.048Z,4.80
2019-01-17T07:06:07.490Z,4.83
2019-01-17T07:11:09.978Z,4.82
2019-01-17T07:16:12.782Z,4.77
2019-01-17T07:21:15.271Z,4.92
2019-01-17T07:26:17.654Z,4.67
2019-01-17T07:31:20.360Z,4.55
2019-01-17T07:36:23.255Z,4.58
2019-01-17T07:41:26.100Z,4.57
2019-01-17T07:46:28.961Z,4.59
2019-01-17T07:51:31.966Z,4.60
2019-01-17T07:56:34.701Z,4.54
2019-01-17T08:01:37.292Z,4.31
2019-01-17T08:06:40.260Z,4.27
2019-01-17T08:11:42.927Z,4.29
2019-01-17T08:16:45.195Z,4.37
2019-01-17T08:21:48.004Z,4.32
2019-01-17T08:26:50.620Z,4.42
2019-01-17T08:31:53.667Z,4.46
2019-01-17T08:36:56.467Z,4.41
2019-01-17T08:41:59.573Z,4.46
2019-01-17T08:47:02.388Z,4.60
2019-01-17T08:52:05.218Z,4.61
2019-01-17T08:57:08.328Z,4.66
2019-01-17T09:02:11.164Z,4.59
2019-01-17T09:07:14.177Z,4.56
2019-01-17T09:12:17.369Z,4.58
2019-01-17T09:17:20.178Z,4.48
2019-01-17T09:22:22.676Z,4.46
2019-01-17T09:27:25.510Z,4.35
2019-01-17T09:32:28.686Z,4.48
2019-01-17T09:37:31.184Z,4.46
2019-01-17T09:42:33.359Z,4.61
2019-01-17T09:47:36.567Z,4.77
2019-01-17T09:52:39.193Z,4.56
2019-01-17T09:57:41.898Z,4.56
2019-01-17T10:02:44.556Z,4.64
2019-01-17T10:07:47.181Z,4.55
2019-01-17T10:12:50.589Z,4.71
2019-01-17T10:18:21.224Z,4.59
2019-01-17T10:23:46.868Z,4.54
2019-01-17T10:29:15.981Z,4.62
2019-01-17T10:34:48.748Z,4.57
2019-01-17T10:40:38.998Z,4.70
2019-01-17T10:46:23.806Z,4.74
2019-01-17T10:51:43.656Z,4.77
2019-01-17T10:57:03.561Z,4.69
2019-01-17T11:02:56.884Z,4.70
2019-01-17T11:08:37.982Z,4.97
2019-01-17T11:14:07.976Z,5.11
2019-01-17T11:20:02.935Z,5.30
2019-01-17T11:25:40.336Z,5.34
2019-01-17T11:31:29.738Z,5.43
2019-01-17T11:37:26.375Z,5.42
2019-01-17T11:42:56.044Z,5.23
2019-01-17T11:48:27.716Z,5.03
2019-01-17T11:54:07.895Z,5.32
2019-01-17T11:59:18.378Z,5.34
2019-01-17T12:04:35.844Z,5.25
2019-01-17T12:09:38.612Z,5.21
2019-01-17T12:14:41.797Z,5.28
2019-01-17T12:19:44.534Z,5.39
2019-01-17T12:24:47.771Z,5.09
2019-01-17T12:29:50.345Z,5.02
2019-01-17T12:34:53.135Z,4.97
2019-01-17T12:39:55.526Z,4.97
2019-01-17T12:44:58.437Z,4.99
2019-01-17T12:50:01.639Z,5.03
2019-01-17T12:55:05.027Z,5.05
2019-01-17T13:00:11.083Z,5.03
2019-01-17T13:05:14.331Z,5.07
2019-01-17T13:10:17.256Z,5.07
2019-01-17T13:15:20.431Z,4.85
2019-01-17T13:20:23.337Z,4.76
2019-01-17T13:25:26.210Z,4.97
2019-01-17T13:30:28.509Z,5.00
2019-01-17T13:35:31.186Z,4.91
2019-01-17T13:40:34.042Z,5.11
2019-01-17T13:45:37.147Z,5.21
2019-01-17T13:50:39.742Z,5.14
2019-01-17T13:55:42.519Z,5.14
2019-01-17T14:00:45.296Z,5.15
2019-01-17T14:05:47.841Z,5.14
2019-01-17T14:10:50.712Z,5.20
2019-01-17T14:15:53.535Z,5.21
2019-01-17T14:20:56.027Z,5.05
2019-01-17T14:25:59.057Z,4.96
2019-01-17T14:31:01.713Z,4.99
2019-01-17T14:36:04.575Z,5.01
2019-01-17T14:41:07.552Z,4.89
2019-01-17T14:46:10.260Z,4.94
2019-01-17T14:51:13.003Z,4.90
2019-01-17T14:56:15.649Z,4.99
2019-01-17T15:01:18.325Z,5.22
2019-01-17T15:06:21.422Z,5.22
2019-01-17T15:11:24.324Z,5.16
2019-01-17T15:16:27.241Z,5.09
2019-01-17T15:21:30.124Z,4.98
2019-01-17T15:26:32.654Z,4.61
2019-01-17T15:31:35.222Z,4.15
2019-01-17T15:36:37.157Z,4.06
2019-01-17T15:41:39.713Z,4.04
2019-01-17T15:46:42.201Z,4.08
2019-01-17T15:51:44.390Z,4.09
2019-01-17T15:56:47.091Z,4.20
2019-01-17T16:01:50.091Z,4.20
2019-01-17T16:06:52.896Z,4.18
2019-01-17T16:11:56.082Z,4.19
2019-01-17T16:16:59.077Z,4.12
2019-01-17T16:22:02.010Z,4.21
2019-01-17T16:27:05.079Z,4.24
2019-01-17T16:32:07.901Z,4.24
2019-01-17T16:37:10.417Z,4.31
2019-01-17T16:42:13.230Z,4.30
2019-01-17T16:47:16.524Z,4.28
2019-01-17T16:52:19.249Z,4.31
2019-01-17T16:57:21.705Z,4.33
2019-01-17T17:02:24.600Z,4.27
2019-01-17T17:07:27.410Z,4.28
2019-01-17T17:12:30.099Z,4.08
2019-01-17T17:17:32.635Z,4.12
2019-01-17T17:22:35.415Z,3.92
2019-01-17T17:27:38.544Z,3.41
2019-01-17T17:32:41.385Z,3.48
2019-01-17T17:37:43.680Z,3.38
2019-01-17T17:42:45.976Z,3.41
2019-01-17T17:47:48.789Z,3.30
2019-01-17T17:52:51.927Z,3.15
2019-01-17T17:57:55.130Z,2.98
2019-01-17T18:02:58.629Z,2.95
2019-01-17T18:08:01.026Z,2.91
2019-01-17T18:13:03.921Z,3.15
2019-01-17T18:18:07.232Z,3.19
2019-01-17T18:23:10.082Z,2.99
2019-01-17T18:28:12.929Z,2.97
2019-01-17T18:33:16.058Z,3.06
2019-01-17T18:38:19.785Z,3.01
2019-01-17T18:43:22.389Z,3.08
2019-01-17T18:48:24.356Z,2.83
2019-01-17T18:53:27.357Z,2.92
2019-01-17T18:58:31.034Z,2.76
2019-01-17T19:03:34.142Z,2.73
2019-01-17T19:08:37.386Z,2.65
2019-01-17T19:13:41.344Z,2.66
2019-01-17T19:18:44.877Z,2.63
2019-01-17T19:23:50.575Z,2.65
2019-01-17T19:28:54.407Z,2.65
2019-01-17T19:33:58.076Z,2.39
2019-01-17T19:39:03.702Z,2.26
2019-01-17T19:44:06.886Z,1.91
2019-01-17T19:49:10.127Z,1.77
2019-01-17T19:54:13.790Z,1.99
2019-01-17T19:59:19.167Z,2.32
2019-01-17T20:04:26.245Z,2.18
2019-01-17T20:09:31.537Z,2.22
2019-01-17T20:14:36.594Z,2.22
2019-01-17T20:19:42.552Z,2.24
2019-01-17T20:24:47.722Z,2.23
2019-01-17T20:29:53.466Z,2.22
2019-01-17T20:35:00.795Z,2.25
2019-01-17T20:40:06.430Z,2.21
2019-01-17T20:45:13.302Z,2.13
2019-01-17T20:50:26.886Z,2.24
2019-01-17T20:55:32.638Z,2.36
2019-01-17T21:00:40.866Z,2.57
2019-01-17T21:05:47.880Z,2.52
2019-01-17T21:10:52.957Z,2.38
2019-01-17T21:16:01.175Z,2.12
2019-01-17T21:21:01.785Z,2.19
2019-01-17T21:26:05.173Z,2.21
2019-01-17T21:31:08.025Z,2.10
2019-01-17T21:36:11.737Z,2.07
2019-01-17T21:41:14.640Z,1.98
2019-01-17T21:46:17.115Z,2.13
2019-01-17T21:51:20.316Z,2.01
2019-01-17T21:56:22.706Z,2.05
2019-01-17T22:01:26.143Z,1.94
2019-01-17T22:06:28.514Z,1.72
2019-01-17T22:11:31.217Z,1.71
2019-01-17T22:16:34.215Z,1.79
2019-01-17T22:21:36.814Z,1.79
2019-01-17T22:26:39.699Z,1.76
2019-01-17T22:31:42.400Z,1.59
2019-01-17T22:36:45.425Z,1.71
2019-01-17T22:41:48.337Z,1.56
2019-01-17T22:46:51.023Z,1.70
2019-01-17T22:51:54.042Z,1.65
2019-01-17T22:56:57.132Z,1.71
2019-01-17T23:02:00.352Z,1.77
2019-01-17T23:07:03.025Z,1.70
2019-01-17T23:12:05.925Z,1.62
2019-01-17T23:17:09.032Z,1.63
2019-01-17T23:22:11.503Z,1.76
2019-01-17T23:27:14.464Z,1.84
2019-01-17T23:32:17.339Z,1.66
2019-01-17T23:37:20.446Z,1.77
2019-01-17T23:42:22.911Z,1.58
2019-01-17T23:47:25.732Z,1.57
2019-01-17T23:52:28.839Z,1.50
2019-01-17T23:57:31.495Z,1.52
